Time;durP1;ratioP1;P1;durP2;ratioP2;P2;SDS_P1;SDS_P2;PMS_P1;PMS_P2;Temp;Humidity;BMP_temperature;BMP_pressure;BME280_temperature;BME280_humidity;BME280_pressure;Samples;Min_cycle;Max_cycle;Signal;HPM_P1;HPM_P2
2023/01/04 00:01:24;;;;;;;17.90;10.70;;;6.30;99.90;;;;;;5051687;28;20826;-55
2023/01/04 00:03:51;;;;;;;14.40;10.30;;;6.50;99.90;;;;;;5051808;28;20432;-55
2023/01/04 00:06:18;;;;;;;16.63;10.77;;;6.30;99.90;;;;;;5052012;28;20446;-54
2023/01/04 00:08:45;;;;;;;14.33;10.70;;;5.90;99.90;;;;;;5050857;28;20429;-55
2023/01/04 00:11:13;;;;;;;13.37;9.77;;;6.40;99.90;;;;;;5051497;28;20818;-54
2023/01/04 00:13:41;;;;;;;12.57;10.33;;;6.40;99.90;;;;;;5051509;28;20478;-54
2023/01/04 00:16:13;;;;;;;12.67;10.03;;;6.40;99.90;;;;;;5051381;28;20721;-54
2023/01/04 00:18:40;;;;;;;12.50;10.50;;;6.30;99.90;;;;;;5050796;28;20443;-54
2023/01/04 00:21:08;;;;;;;14.33;9.73;;;6.20;99.90;;;;;;5051205;28;20808;-55
2023/01/04 00:23:35;;;;;;;10.40;9.30;;;6.30;99.90;;;;;;5051407;28;20865;-55
2023/01/04 00:26:02;;;;;;;12.40;9.90;;;6.50;99.90;;;;;;5051255;28;20454;-54
2023/01/04 00:28:28;;;;;;;12.37;9.53;;;6.40;99.90;;;;;;5050808;28;20433;-54
2023/01/04 00:30:55;;;;;;;11.70;10.43;;;6.50;99.90;;;;;;5051209;28;20433;-55
2023/01/04 00:33:23;;;;;;;12.03;9.63;;;6.60;99.90;;;;;;5033314;28;20454;-54
2023/01/04 00:35:49;;;;;;;11.77;9.37;;;6.30;99.90;;;;;;5051781;28;20419;-55
2023/01/04 00:38:16;;;;;;;19.20;9.20;;;6.10;99.90;;;;;;5051205;28;20437;-55
2023/01/04 00:40:43;;;;;;;10.60;9.50;;;5.90;99.90;;;;;;5050860;28;20469;-55
2023/01/04 00:43:09;;;;;;;11.73;9.33;;;6.10;99.90;;;;;;5054405;28;20403;-55
2023/01/04 00:45:36;;;;;;;11.07;8.57;;;6.50;99.90;;;;;;5055502;28;20446;-56
2023/01/04 00:48:03;;;;;;;12.30;9.40;;;6.10;99.90;;;;;;5055292;28;20413;-55
2023/01/04 00:50:30;;;;;;;11.43;8.90;;;6.10;99.90;;;;;;5054735;28;20442;-54
2023/01/04 00:53:17;;;;;;;10.80;8.47;;;5.90;99.90;;;;;;5055161;28;20465;-55
2023/01/04 00:55:44;;;;;;;12.90;9.00;;;6.40;99.90;;;;;;5055165;28;20435;-55
2023/01/04 00:58:11;;;;;;;12.60;8.90;;;5.60;99.90;;;;;;5055063;28;20456;-55
2023/01/04 01:00:38;;;;;;;11.60;9.00;;;6.30;99.90;;;;;;5053874;28;20455;-55
2023/01/04 01:03:05;;;;;;;10.90;8.60;;;6.10;99.90;;;;;;5054950;28;20426;-54
2023/01/04 01:05:34;;;;;;;11.27;8.70;;;6.10;99.90;;;;;;5055038;28;20460;-55
2023/01/04 01:08:23;;;;;;;10.10;8.10;;;6.20;99.90;;;;;;5055132;28;20506;-55
2023/01/04 01:10:48;;;;;;;9.30;8.40;;;6.10;99.90;;;;;;5054399;28;20463;-54
2023/01/04 01:13:15;;;;;;;11.57;7.30;;;6.70;99.90;;;;;;5054820;28;20424;-54
2023/01/04 01:15:42;;;;;;;10.73;8.70;;;6.20;99.90;;;;;;5054879;28;20486;-55
2023/01/04 01:18:08;;;;;;;9.00;8.03;;;5.60;99.90;;;;;;5054682;28;20431;-54
2023/01/04 01:20:41;;;;;;;8.60;7.63;;;6.10;99.90;;;;;;5053731;28;20472;-54
2023/01/04 01:23:07;;;;;;;9.20;7.60;;;6.60;99.90;;;;;;5054659;28;20451;-54
2023/01/04 01:25:34;;;;;;;8.97;7.43;;;6.30;99.90;;;;;;5054940;28;20412;-54
2023/01/04 01:28:01;;;;;;;8.70;7.80;;;6.40;99.90;;;;;;5054507;28;20437;-55
2023/01/04 01:30:27;;;;;;;9.43;7.00;;;6.40;99.90;;;;;;5053768;28;20874;-53
2023/01/04 01:32:54;;;;;;;11.10;5.57;;;6.30;99.90;;;;;;5054493;28;20415;-55
2023/01/04 01:35:20;;;;;;;8.40;6.83;;;6.40;99.90;;;;;;5054433;28;20441;-55
2023/01/04 01:37:48;;;;;;;7.67;6.73;;;6.30;99.90;;;;;;5054356;28;20403;-56
2023/01/04 01:40:15;;;;;;;8.90;6.90;;;6.30;99.90;;;;;;5035588;28;20796;-55
2023/01/04 01:42:41;;;;;;;9.40;7.77;;;6.40;99.90;;;;;;5054298;28;20510;-54
2023/01/04 01:45:28;;;;;;;8.13;7.33;;;6.40;99.90;;;;;;5054455;28;20447;-55
2023/01/04 01:47:59;;;;;;;10.90;7.27;;;6.50;99.90;;;;;;5054285;28;20429;-55
2023/01/04 01:50:30;;;;;;;7.67;6.90;;;6.30;99.90;;;;;;5035417;28;20455;-55
2023/01/04 01:53:00;;;;;;;7.47;6.27;;;6.40;99.90;;;;;;5053368;28;20412;-55
2023/01/04 01:55:30;;;;;;;8.33;6.13;;;6.30;99.90;;;;;;5053492;28;20448;-55
2023/01/04 01:57:57;;;;;;;10.70;6.50;;;6.30;99.90;;;;;;5054022;28;20414;-56
2023/01/04 02:00:24;;;;;;;8.57;6.00;;;6.20;99.90;;;;;;5035344;28;20987;-55
2023/01/04 02:02:57;;;;;;;8.83;6.60;;;6.40;99.90;;;;;;5053710;28;20412;-55
2023/01/04 02:05:25;;;;;;;9.37;5.90;;;6.70;99.90;;;;;;5053864;28;20750;-54
2023/01/04 02:07:52;;;;;;;10.47;6.97;;;6.10;99.90;;;;;;5053951;28;20533;-55
2023/01/04 02:10:20;;;;;;;7.97;6.03;;;6.00;99.90;;;;;;5052996;28;20456;-55
2023/01/04 02:12:50;;;;;;;8.17;6.50;;;6.10;99.90;;;;;;5053759;28;20411;-56
2023/01/04 02:15:17;;;;;;;9.77;6.90;;;6.10;99.90;;;;;;5053822;28;20433;-55
2023/01/04 02:17:53;;;;;;;9.03;6.93;;;6.00;99.90;;;;;;5035693;28;20492;-56
2023/01/04 02:20:30;;;;;;;9.73;7.70;;;6.20;99.90;;;;;;5052837;28;20473;-54
2023/01/04 02:23:28;;;;;;;8.57;7.47;;;6.10;99.90;;;;;;5053681;28;20938;-54
2023/01/04 02:26:42;;;;;;;8.70;6.73;;;6.00;99.90;;;;;;5053397;28;20432;-54
2023/01/04 02:29:36;;;;;;;9.73;7.50;;;6.00;99.90;;;;;;5052770;28;20863;-54
2023/01/04 02:32:09;;;;;;;6.60;5.90;;;6.10;99.90;;;;;;5053439;28;20960;-54
2023/01/04 02:34:43;;;;;;;7.47;6.70;;;6.10;99.90;;;;;;5053501;28;20469;-54
2023/01/04 02:37:18;;;;;;;7.93;6.20;;;6.30;99.90;;;;;;5035643;28;20436;-53
2023/01/04 02:39:56;;;;;;;8.37;6.30;;;5.90;99.90;;;;;;5052598;28;20434;-53
2023/01/04 02:44:51;;;;;;;6.60;5.60;;;6.00;99.90;;;;;;5053391;28;20409;-54
2023/01/04 02:45:19;;;;;;;7.77;7.03;;;5.30;99.90;;;;;;5053155;28;20213;-54
2023/01/04 02:50:38;;;;;;;8.20;5.93;;;5.90;99.90;;;;;;5052344;28;20973;-54
2023/01/04 02:53:08;;;;;;;8.83;6.47;;;5.80;99.90;;;;;;5052931;28;20413;-53
2023/01/04 02:55:51;;;;;;;7.03;6.33;;;6.20;99.90;;;;;;5052864;28;20431;-54
2023/01/04 02:58:46;;;;;;;7.53;6.83;;;5.80;99.90;;;;;;5052887;28;20462;-53
2023/01/04 03:07:09;;;;;;;7.17;6.07;;;5.60;99.90;;;;;;5053180;28;20517;-55
2023/01/04 03:09:40;;;;;;;7.37;6.20;;;5.80;99.90;;;;;;5052320;28;20773;-53
2023/01/04 03:15:06;;;;;;;8.87;7.17;;;5.70;99.90;;;;;;5032306;28;20415;-54
2023/01/04 03:17:37;;;;;;;8.27;6.30;;;5.50;99.90;;;;;;5052606;28;20929;-54
2023/01/04 03:20:08;;;;;;;9.27;6.60;;;6.00;99.90;;;;;;5048770;22;21127;-53
2023/01/04 03:36:45;;;;;;;10.00;6.20;;;5.80;99.90;;;;;;5052670;28;20958;-54
2023/01/04 03:50:49;;;;;;;7.90;5.80;;;5.60;99.90;;;;;;5051679;28;20596;-54
2023/01/04 03:53:18;;;;;;;8.87;6.77;;;5.60;99.90;;;;;;5052345;28;20439;-54
2023/01/04 03:55:46;;;;;;;8.07;6.43;;;5.80;99.90;;;;;;5052299;28;20775;-53
2023/01/04 03:58:13;;;;;;;8.73;7.00;;;5.10;99.90;;;;;;5052380;28;20454;-53
2023/01/04 04:00:40;;;;;;;13.05;6.78;;;5.50;99.90;;;;;;5051587;28;20438;-54
2023/01/04 04:03:08;;;;;;;10.33;7.50;;;6.20;99.90;;;;;;5052283;28;20192;-53
2023/01/04 04:08:29;;;;;;;9.13;6.50;;;5.60;99.90;;;;;;5051733;28;20950;-53
2023/01/04 04:11:28;;;;;;;9.17;6.93;;;5.00;99.90;;;;;;5052054;28;20554;-54
2023/01/04 04:13:44;;;;;;;7.60;6.27;;;5.10;99.90;;;;;;5052200;28;20432;-54
2023/01/04 04:16:11;;;;;;;8.27;6.67;;;5.80;99.90;;;;;;5051513;28;20484;-53
2023/01/04 04:18:38;;;;;;;11.73;6.77;;;5.70;99.90;;;;;;5051329;28;20903;-54
2023/01/04 04:21:04;;;;;;;7.93;7.17;;;5.50;99.90;;;;;;5063144;28;20444;-53
2023/01/04 04:23:32;;;;;;;8.77;6.50;;;5.60;99.90;;;;;;5072076;28;20801;-53
2023/01/04 04:25:59;;;;;;;8.73;6.80;;;5.60;99.90;;;;;;5072385;28;20451;-53
2023/01/04 04:28:26;;;;;;;8.83;7.20;;;5.60;99.90;;;;;;5071180;28;20496;-52
2023/01/04 04:30:52;;;;;;;7.87;6.50;;;5.60;99.90;;;;;;5072073;28;20454;-53
2023/01/04 04:33:19;;;;;;;7.70;6.40;;;5.60;99.90;;;;;;5071779;28;20435;-53
2023/01/04 04:35:50;;;;;;;8.10;6.47;;;5.50;99.90;;;;;;5071624;28;20434;-53
2023/01/04 04:38:17;;;;;;;7.87;5.67;;;5.80;99.90;;;;;;5071827;28;20408;-53
2023/01/04 04:43:29;;;;;;;7.47;6.67;;;5.70;99.90;;;;;;5071698;28;20953;-54
2023/01/04 04:45:55;;;;;;;7.47;6.17;;;5.70;99.90;;;;;;5071638;28;20405;-54
2023/01/04 04:48:22;;;;;;;9.23;6.57;;;6.10;99.90;;;;;;5053326;28;20475;-53
2023/01/04 04:50:49;;;;;;;9.50;6.67;;;5.70;99.90;;;;;;5071253;28;20421;-53
2023/01/04 04:53:15;;;;;;;7.90;6.23;;;5.70;99.90;;;;;;5071952;28;20822;-54
2023/01/04 04:55:42;;;;;;;7.90;6.60;;;5.60;99.90;;;;;;5071621;28;20911;-53
2023/01/04 04:58:10;;;;;;;6.93;6.13;;;5.80;99.90;;;;;;5071645;28;20439;-53
2023/01/04 05:00:36;;;;;;;8.10;6.17;;;5.30;99.90;;;;;;5070794;28;20438;-53
2023/01/04 05:03:03;;;;;;;8.88;7.55;;;5.60;99.90;;;;;;5071535;28;20405;-53
2023/01/04 05:05:30;;;;;;;8.37;6.60;;;5.40;99.90;;;;;;5071296;28;20197;-53
2023/01/04 05:07:56;;;;;;;9.63;6.60;;;5.90;99.90;;;;;;5071301;28;20475;-52
2023/01/04 05:10:23;;;;;;;8.20;5.60;;;5.90;99.90;;;;;;5070703;28;20522;-52
2023/01/04 05:13:01;;;;;;;7.23;6.47;;;5.80;99.90;;;;;;5071360;28;20405;-53
2023/01/04 05:15:31;;;;;;;6.77;6.00;;;6.00;99.90;;;;;;5071337;28;20911;-52
2023/01/04 05:17:58;;;;;;;8.30;6.47;;;5.30;99.90;;;;;;5071405;28;20410;-53
2023/01/04 05:20:25;;;;;;;9.20;6.00;;;5.70;99.90;;;;;;5070389;28;21105;-53
2023/01/04 05:22:51;;;;;;;6.93;5.80;;;5.80;99.90;;;;;;5071376;28;20425;-53
2023/01/04 05:25:18;;;;;;;6.57;5.97;;;5.90;99.90;;;;;;5071419;28;20414;-54
2023/01/04 05:27:45;;;;;;;9.93;5.70;;;6.00;99.90;;;;;;5071823;28;20224;-53
2023/01/04 05:32:58;;;;;;;8.10;5.30;;;5.80;99.90;;;;;;5075342;28;20429;-53
2023/01/04 05:35:25;;;;;;;6.77;6.10;;;6.10;99.90;;;;;;5074713;28;20792;-53
2023/01/04 05:37:52;;;;;;;8.43;5.87;;;5.90;99.90;;;;;;5056637;28;20426;-53
2023/01/04 05:40:19;;;;;;;7.70;5.20;;;5.90;99.90;;;;;;5074001;28;20974;-55
2023/01/04 05:42:46;;;;;;;12.07;5.77;;;6.00;99.90;;;;;;5074901;28;20758;-53
2023/01/04 05:45:13;;;;;;;7.80;6.60;;;6.30;99.90;;;;;;5074825;28;20422;-53
2023/01/04 05:47:40;;;;;;;9.10;6.60;;;6.00;99.90;;;;;;5074599;28;20442;-53
2023/01/04 05:50:09;;;;;;;10.40;6.73;;;6.00;99.90;;;;;;5073841;28;20474;-53
2023/01/04 05:52:36;;;;;;;6.77;5.60;;;6.00;99.90;;;;;;5074558;28;20411;-52
2023/01/04 05:55:03;;;;;;;6.90;5.70;;;6.20;99.90;;;;;;5074652;28;20414;-53
2023/01/04 05:57:30;;;;;;;8.80;5.40;;;6.20;99.90;;;;;;5056531;28;20422;-53
2023/01/04 05:59:56;;;;;;;9.90;6.37;;;6.20;99.90;;;;;;5073649;28;20547;-55
2023/01/04 06:02:25;;;;;;;7.97;5.63;;;6.20;99.90;;;;;;5074207;28;20413;-53
2023/01/04 06:04:52;;;;;;;10.90;5.50;;;6.30;99.90;;;;;;5074158;28;20969;-53
2023/01/04 06:07:20;;;;;;;6.03;5.40;;;6.30;99.90;;;;;;5074174;28;20516;-55
2023/01/04 06:09:47;;;;;;;7.70;5.73;;;6.40;99.90;;;;;;5073568;28;20514;-52
2023/01/04 06:12:14;;;;;;;14.30;5.13;;;6.00;99.90;;;;;;5074179;28;20439;-53
2023/01/04 06:14:40;;;;;;;7.50;5.73;;;5.70;99.90;;;;;;5074232;28;20402;-53
2023/01/04 06:17:07;;;;;;;12.77;7.10;;;6.50;99.90;;;;;;5074093;28;20735;-53
2023/01/04 06:19:34;;;;;;;10.20;6.47;;;5.90;99.90;;;;;;5073125;28;20431;-54
2023/01/04 06:22:01;;;;;;;8.87;6.00;;;6.40;99.90;;;;;;5073878;28;20813;-54
2023/01/04 06:24:29;;;;;;;7.17;4.87;;;6.40;99.90;;;;;;5073942;28;20409;-54
2023/01/04 06:26:55;;;;;;;6.60;4.67;;;6.50;99.90;;;;;;5073783;28;20779;-54
2023/01/04 06:29:22;;;;;;;6.90;5.20;;;6.50;99.90;;;;;;5072593;28;20410;-54
2023/01/04 06:31:48;;;;;;;9.90;5.33;;;6.60;99.90;;;;;;5073287;28;20434;-53
2023/01/04 06:34:15;;;;;;;8.00;5.90;;;6.50;99.90;;;;;;5073365;28;20443;-54
2023/01/04 06:36:42;;;;;;;7.60;5.10;;;6.60;99.90;;;;;;5073133;28;20415;-53
2023/01/04 06:39:09;;;;;;;6.70;5.10;;;6.50;99.90;;;;;;5072325;28;20431;-55
2023/01/04 06:41:37;;;;;;;7.33;5.40;;;6.40;99.90;;;;;;5073286;28;20426;-55
2023/01/04 06:44:04;;;;;;;7.37;4.70;;;6.40;99.90;;;;;;5072241;28;20879;-56
2023/01/04 06:46:31;;;;;;;8.17;4.80;;;6.60;99.90;;;;;;5072956;28;20906;-52
2023/01/04 06:48:58;;;;;;;5.40;4.60;;;6.90;99.90;;;;;;5072414;28;20464;-53
2023/01/04 06:51:24;;;;;;;7.97;5.33;;;6.60;99.90;;;;;;5072992;28;20421;-54
2023/01/04 06:53:51;;;;;;;15.10;5.27;;;6.10;99.90;;;;;;5072650;28;20796;-53
2023/01/04 06:56:18;;;;;;;7.93;5.50;;;6.60;99.90;;;;;;5072941;28;20925;-54
2023/01/04 06:58:46;;;;;;;10.20;5.20;;;6.80;99.90;;;;;;5071799;28;20414;-54
2023/01/04 07:01:12;;;;;;;6.83;4.00;;;6.80;99.90;;;;;;5072835;28;20471;-54
2023/01/04 07:03:39;;;;;;;12.07;4.90;;;6.90;99.90;;;;;;5054574;28;20961;-54
2023/01/04 07:06:06;;;;;;;7.80;4.23;;;7.10;99.90;;;;;;5072739;28;20443;-53
2023/01/04 07:08:34;;;;;;;7.70;4.13;;;6.90;99.90;;;;;;5072081;28;20462;-53
2023/01/04 07:11:01;;;;;;;5.30;4.30;;;7.00;99.90;;;;;;5072689;28;20480;-53
2023/01/04 07:13:27;;;;;;;5.57;3.97;;;7.00;99.90;;;;;;5072330;28;20443;-53
2023/01/04 07:15:55;;;;;;;6.93;4.57;;;7.00;99.90;;;;;;5073074;28;20407;-54
2023/01/04 07:18:22;;;;;;;7.47;3.60;;;7.00;99.90;;;;;;5072439;28;20415;-54
2023/01/04 07:20:49;;;;;;;10.67;4.00;;;7.20;99.90;;;;;;5072477;28;20469;-55
2023/01/04 07:23:16;;;;;;;7.43;4.00;;;7.20;99.90;;;;;;5072680;28;20917;-54
2023/01/04 07:25:42;;;;;;;8.20;3.03;;;7.30;99.90;;;;;;5072619;28;20415;-54
2023/01/04 07:28:09;;;;;;;6.77;3.60;;;6.60;99.90;;;;;;5072589;28;20445;-54
2023/01/04 07:30:36;;;;;;;5.70;3.70;;;7.20;99.90;;;;;;5071618;28;20569;-54
2023/01/04 07:33:04;;;;;;;8.90;4.20;;;7.20;99.90;;;;;;5072171;28;20942;-53
2023/01/04 07:35:31;;;;;;;8.43;3.50;;;7.50;99.90;;;;;;5072256;28;20515;-53
2023/01/04 07:37:58;;;;;;;10.07;4.20;;;7.40;99.90;;;;;;5072312;28;20721;-53
2023/01/04 07:40:25;;;;;;;5.40;3.23;;;7.30;99.90;;;;;;5071424;28;20435;-54
2023/01/04 07:42:56;;;;;;;7.23;3.70;;;7.40;99.90;;;;;;5072021;28;20970;-54
2023/01/04 07:45:23;;;;;;;5.20;3.30;;;7.30;99.90;;;;;;5072199;28;20464;-53
2023/01/04 07:47:50;;;;;;;8.23;4.50;;;7.30;99.90;;;;;;5071939;28;21069;-54
2023/01/04 07:50:18;;;;;;;8.00;3.83;;;7.80;99.90;;;;;;5071181;28;20499;-53
2023/01/04 07:52:44;;;;;;;7.70;4.07;;;7.40;99.90;;;;;;5071763;28;20444;-53
2023/01/04 07:55:11;;;;;;;5.10;3.30;;;7.50;99.90;;;;;;5072070;28;20435;-54
2023/01/04 07:57:37;;;;;;;7.60;3.80;;;7.30;99.90;;;;;;5071884;28;20972;-54
2023/01/04 08:00:05;;;;;;;5.53;3.57;;;7.30;99.90;;;;;;5071483;28;20438;-55
2023/01/04 08:02:38;;;;;;;6.50;3.83;;;7.50;99.90;;;;;;5071761;28;20398;-54
2023/01/04 08:05:06;;;;;;;10.77;4.00;;;7.60;99.90;;;;;;5071859;28;20775;-54
2023/01/04 08:07:34;;;;;;;6.60;4.40;;;7.70;99.90;;;;;;5071910;28;20599;-54
2023/01/04 08:10:00;;;;;;;10.60;3.83;;;7.20;99.90;;;;;;5070748;28;20457;-54
2023/01/04 08:12:27;;;;;;;11.53;4.00;;;7.40;99.90;;;;;;5071416;28;20441;-54
2023/01/04 08:14:54;;;;;;;4.97;3.70;;;7.40;99.90;;;;;;5071752;28;20443;-54
2023/01/04 08:17:21;;;;;;;6.13;3.67;;;7.30;99.90;;;;;;5071704;28;20420;-54
2023/01/04 08:19:50;;;;;;;8.10;4.10;;;7.50;99.90;;;;;;5052636;28;20416;-54
2023/01/04 08:22:17;;;;;;;7.43;3.70;;;7.50;99.90;;;;;;5072003;28;20870;-53
2023/01/04 08:24:45;;;;;;;5.80;4.00;;;7.40;99.90;;;;;;5071922;28;20407;-54
2023/01/04 08:27:12;;;;;;;14.03;4.50;;;7.70;99.90;;;;;;5071487;28;20446;-55
2023/01/04 08:29:38;;;;;;;12.40;5.73;;;7.40;99.90;;;;;;5070492;28;20479;-54
2023/01/04 08:32:06;;;;;;;8.27;3.87;;;7.30;99.90;;;;;;5071686;28;20431;-53
2023/01/04 08:34:32;;;;;;;8.03;3.60;;;7.60;99.90;;;;;;5071700;28;20816;-54
2023/01/04 08:36:59;;;;;;;7.53;3.87;;;7.60;99.90;;;;;;5071280;28;20427;-53
2023/01/04 08:39:28;;;;;;;7.00;3.47;;;7.60;99.90;;;;;;5070933;28;20433;-53
2023/01/04 08:41:56;;;;;;;5.87;3.07;;;7.00;99.90;;;;;;5071404;28;20454;-53
2023/01/04 08:44:25;;;;;;;5.40;3.60;;;7.70;99.90;;;;;;5071487;28;20411;-53
2023/01/04 08:46:53;;;;;;;7.20;4.53;;;7.60;99.90;;;;;;5071405;28;20434;-53
2023/01/04 08:49:20;;;;;;;4.10;3.00;;;7.60;99.90;;;;;;5070240;28;20477;-53
2023/01/04 08:51:48;;;;;;;6.00;3.83;;;7.40;99.90;;;;;;5071583;28;20424;-55
2023/01/04 08:54:15;;;;;;;6.63;4.37;;;7.60;99.90;;;;;;5071160;28;20416;-54
2023/01/04 08:56:42;;;;;;;9.00;4.03;;;7.40;99.90;;;;;;5071363;28;20920;-54
2023/01/04 08:59:12;;;;;;;4.83;3.67;;;7.90;99.90;;;;;;5070586;28;20407;-53
2023/01/04 09:01:39;;;;;;;9.40;3.67;;;8.00;99.90;;;;;;5071380;28;20463;-54
2023/01/04 09:04:06;;;;;;;5.57;4.13;;;7.70;99.90;;;;;;5074315;28;20407;-54
2023/01/04 09:06:33;;;;;;;5.77;3.37;;;7.70;99.90;;;;;;5075506;28;20758;-55
2023/01/04 09:08:59;;;;;;;4.27;3.20;;;8.30;99.90;;;;;;5074538;28;20467;-53
2023/01/04 09:11:27;;;;;;;7.17;3.70;;;7.60;99.90;;;;;;5075339;28;20530;-53
2023/01/04 09:13:58;;;;;;;7.30;4.37;;;7.70;99.90;;;;;;5075326;28;20453;-54
2023/01/04 09:16:26;;;;;;;6.90;4.40;;;7.80;99.90;;;;;;5075239;28;20938;-53
2023/01/04 09:18:54;;;;;;;7.07;4.00;;;7.40;99.90;;;;;;5074299;28;20405;-53
2023/01/04 09:21:22;;;;;;;8.03;4.53;;;7.80;99.90;;;;;;5087768;22;20811;-54
2023/01/04 09:23:49;;;;;;;6.70;4.00;;;8.10;99.90;;;;;;5054677;28;21015;-54
2023/01/04 09:26:20;;;;;;;6.97;3.43;;;8.00;99.90;;;;;;5054579;28;20440;-55
2023/01/04 09:28:47;;;;;;;6.13;4.20;;;7.90;99.90;;;;;;5053623;28;20475;-55
2023/01/04 09:31:15;;;;;;;6.43;3.80;;;8.10;99.90;;;;;;5052875;28;20467;-55
2023/01/04 09:33:45;;;;;;;7.60;4.57;;;8.00;99.90;;;;;;5054469;28;20417;-53
2023/01/04 09:36:14;;;;;;;8.77;5.30;;;7.50;99.90;;;;;;5053153;28;20531;-54
2023/01/04 09:38:41;;;;;;;6.33;4.73;;;7.80;99.90;;;;;;5054130;28;20979;-54
2023/01/04 09:41:18;;;;;;;4.87;3.63;;;8.00;99.90;;;;;;5053891;28;20523;-55
2023/01/04 09:43:47;;;;;;;5.33;4.20;;;8.10;99.90;;;;;;5053936;28;20773;-55
2023/01/04 09:46:23;;;;;;;7.43;4.43;;;8.10;99.90;;;;;;5053949;28;20430;-54
2023/01/04 09:48:54;;;;;;;4.80;4.30;;;8.20;99.90;;;;;;5053362;28;20558;-55
2023/01/04 09:51:27;;;;;;;8.90;4.77;;;8.00;99.90;;;;;;5052700;28;20469;-55
2023/01/04 09:53:58;;;;;;;8.17;4.47;;;8.00;99.90;;;;;;5054178;28;20412;-55
2023/01/04 09:56:29;;;;;;;6.10;4.50;;;8.40;99.90;;;;;;5053982;28;20910;-55
2023/01/04 09:58:56;;;;;;;8.10;4.23;;;8.20;99.90;;;;;;5053121;28;20887;-54
2023/01/04 10:01:25;;;;;;;5.70;4.40;;;8.10;99.90;;;;;;5053702;28;20446;-55
2023/01/04 10:03:59;;;;;;;8.53;4.70;;;8.00;99.90;;;;;;5054068;28;20419;-56
2023/01/04 10:06:26;;;;;;;7.00;5.07;;;8.40;99.90;;;;;;5053519;28;20839;-55
2023/01/04 10:08:54;;;;;;;7.33;5.00;;;8.40;99.90;;;;;;5052871;28;20498;-56
2023/01/04 10:11:31;;;;;;;6.43;4.77;;;8.30;99.90;;;;;;5053803;28;20432;-55
2023/01/04 10:14:24;;;;;;;6.53;4.90;;;8.10;99.90;;;;;;5053091;28;20770;-56
2023/01/04 10:17:03;;;;;;;7.20;4.53;;;7.80;99.90;;;;;;5050990;28;20913;-54
2023/01/04 10:19:41;;;;;;;6.30;4.40;;;8.20;99.90;;;;;;5052941;28;20436;-55
2023/01/04 10:22:14;;;;;;;6.20;4.53;;;8.00;99.90;;;;;;5053272;28;20440;-55
2023/01/04 10:24:50;;;;;;;5.00;4.00;;;8.10;99.90;;;;;;5053470;28;20402;-54
2023/01/04 10:27:24;;;;;;;10.63;5.03;;;8.30;99.90;;;;;;5053600;28;20416;-54
2023/01/04 10:30:07;;;;;;;7.50;5.23;;;8.10;99.90;;;;;;5052720;28;20452;-54
2023/01/04 10:32:39;;;;;;;5.87;4.07;;;8.40;99.90;;;;;;5053777;28;20427;-55
2023/01/04 10:35:19;;;;;;;11.60;5.10;;;8.10;99.90;;;;;;5053419;28;20753;-55
2023/01/04 10:37:49;;;;;;;6.60;5.27;;;8.80;99.90;;;;;;5051694;28;20424;-53
2023/01/04 10:40:17;;;;;;;9.03;5.40;;;8.40;99.90;;;;;;5052322;28;20426;-54
2023/01/04 10:42:50;;;;;;;6.83;4.10;;;8.30;99.90;;;;;;5053189;28;20860;-54
2023/01/04 10:45:22;;;;;;;9.43;4.47;;;8.30;99.90;;;;;;5053078;28;20409;-53
2023/01/04 10:47:59;;;;;;;10.40;5.90;;;8.40;99.90;;;;;;5052896;28;20431;-53
2023/01/04 10:50:34;;;;;;;10.57;6.37;;;7.80;99.90;;;;;;5052162;28;20543;-55
2023/01/04 10:53:04;;;;;;;8.83;6.20;;;8.40;99.90;;;;;;5052957;28;20816;-56
2023/01/04 10:55:41;;;;;;;8.10;6.53;;;8.30;99.90;;;;;;5053063;28;20417;-56
2023/01/04 10:58:16;;;;;;;8.53;4.70;;;8.70;99.90;;;;;;5052566;28;20415;-55
2023/01/04 11:00:46;;;;;;;8.10;4.60;;;8.60;99.90;;;;;;5051565;28;20447;-54
2023/01/04 11:03:18;;;;;;;6.60;5.20;;;8.50;99.90;;;;;;5052663;28;20405;-54
2023/01/04 11:05:50;;;;;;;7.90;4.53;;;8.50;99.90;;;;;;5051162;28;20458;-55
2023/01/04 11:08:21;;;;;;;10.80;5.20;;;8.30;99.90;;;;;;5052520;28;20993;-54
2023/01/04 11:10:52;;;;;;;5.80;4.23;;;8.40;99.90;;;;;;5052383;28;20977;-54
2023/01/04 11:13:19;;;;;;;12.80;5.67;;;8.60;99.90;;;;;;5052495;28;20550;-54
2023/01/04 11:15:46;;;;;;;8.63;5.70;;;8.50;99.90;;;;;;5052749;28;20913;-55
2023/01/04 11:18:14;;;;;;;6.63;5.40;;;8.50;99.90;;;;;;5052724;28;20504;-55
2023/01/04 11:20:41;;;;;;;5.00;4.20;;;8.40;99.90;;;;;;5051406;28;20452;-55
2023/01/04 11:23:13;;;;;;;9.37;6.17;;;8.50;99.90;;;;;;5052858;28;20416;-54
2023/01/04 11:25:46;;;;;;;5.30;4.10;;;8.40;99.90;;;;;;5052592;28;20927;-54
2023/01/04 11:28:17;;;;;;;5.83;4.60;;;9.10;99.90;;;;;;5052123;28;20720;-55
2023/01/04 11:30:54;;;;;;;7.40;4.30;;;8.60;99.90;;;;;;5051123;28;20483;-55
2023/01/04 11:33:22;;;;;;;6.37;4.83;;;8.70;99.90;;;;;;5051984;28;20433;-54
2023/01/04 11:35:50;;;;;;;6.53;5.07;;;9.10;99.90;;;;;;5051859;28;20427;-54
2023/01/04 11:38:20;;;;;;;5.53;5.03;;;8.30;99.90;;;;;;5050314;28;20291;-55
2023/01/04 11:40:59;;;;;;;5.03;4.53;;;8.60;99.90;;;;;;5051513;28;20742;-55
2023/01/04 11:43:28;;;;;;;5.90;4.63;;;8.90;99.90;;;;;;5051502;28;20438;-55
2023/01/04 11:45:57;;;;;;;7.67;4.60;;;8.40;99.90;;;;;;5051874;28;20401;-55
2023/01/04 11:48:37;;;;;;;4.53;4.00;;;8.60;99.90;;;;;;5050475;28;20421;-54
2023/01/04 11:51:05;;;;;;;5.77;4.30;;;8.70;99.90;;;;;;5050327;28;20540;-56
2023/01/04 11:53:35;;;;;;;5.83;3.77;;;8.80;99.90;;;;;;5051798;28;20414;-55
2023/01/04 11:56:14;;;;;;;5.80;4.67;;;8.90;99.90;;;;;;5052008;28;20456;-55
2023/01/04 11:58:42;;;;;;;10.20;6.03;;;8.60;99.90;;;;;;5051195;28;20409;-56
2023/01/04 12:01:20;;;;;;;4.27;3.87;;;9.20;99.90;;;;;;5051765;28;20436;-54
2023/01/04 12:03:47;;;;;;;9.17;4.03;;;8.10;99.90;;;;;;5050440;28;20439;-54
2023/01/04 12:06:18;;;;;;;4.30;3.90;;;8.90;99.90;;;;;;5052148;28;20504;-54
2023/01/04 12:08:47;;;;;;;7.70;4.83;;;9.00;99.90;;;;;;5051638;28;20492;-55
2023/01/04 12:11:23;;;;;;;6.27;4.00;;;8.40;99.90;;;;;;5051650;28;20429;-55
2023/01/04 12:13:50;;;;;;;4.73;4.03;;;9.20;99.90;;;;;;5052241;28;20417;-55
2023/01/04 12:16:26;;;;;;;6.33;4.20;;;8.90;99.90;;;;;;5051655;28;20402;-55
2023/01/04 12:18:53;;;;;;;5.47;4.80;;;9.00;99.90;;;;;;5048822;28;21068;-55
2023/01/04 12:21:22;;;;;;;5.17;3.90;;;9.10;99.90;;;;;;5049842;28;20461;-55
2023/01/04 12:23:51;;;;;;;4.87;3.60;;;9.10;99.90;;;;;;5051297;28;20902;-54
2023/01/04 12:26:18;;;;;;;5.63;3.50;;;9.30;99.90;;;;;;5051182;28;20401;-56
2023/01/04 12:28:47;;;;;;;6.00;3.90;;;9.40;99.90;;;;;;5050555;28;20505;-55
2023/01/04 12:31:28;;;;;;;5.57;4.03;;;9.00;99.90;;;;;;5050875;28;20974;-56
2023/01/04 12:33:56;;;;;;;5.53;3.90;;;9.00;99.90;;;;;;5051155;28;20975;-55
2023/01/04 12:36:55;;;;;;;7.20;3.70;;;9.00;99.90;;;;;;5051102;28;20898;-56
2023/01/04 12:39:43;;;;;;;4.53;3.63;;;9.00;99.90;;;;;;5049924;28;20437;-54
2023/01/04 12:42:14;;;;;;;6.90;4.10;;;9.40;99.90;;;;;;5043452;28;20965;-55
2023/01/04 12:45:13;;;;;;;6.53;3.80;;;9.20;99.90;;;;;;5051290;28;20451;-54
2023/01/04 12:50:30;;;;;;;5.10;4.00;;;9.30;99.90;;;;;;5050088;28;20468;-56
2023/01/04 12:53:02;;;;;;;8.70;3.67;;;9.30;99.90;;;;;;5051111;28;20424;-55
2023/01/04 12:55:59;;;;;;;4.90;3.83;;;9.30;99.90;;;;;;5050866;28;20784;-54
2023/01/04 12:59:05;;;;;;;4.40;3.47;;;9.10;99.90;;;;;;5050120;28;20448;-55
2023/01/04 13:01:33;;;;;;;5.03;3.60;;;9.20;99.90;;;;;;5050418;28;20466;-55
2023/01/04 13:04:03;;;;;;;5.37;3.80;;;9.10;99.90;;;;;;5050399;28;20409;-55
2023/01/04 13:06:34;;;;;;;5.50;3.30;;;9.80;99.90;;;;;;5050788;28;20405;-55
2023/01/04 13:09:02;;;;;;;4.13;3.53;;;9.20;99.90;;;;;;5049207;28;20446;-55
2023/01/04 13:11:56;;;;;;;4.40;3.40;;;9.30;99.90;;;;;;5050767;28;20440;-54
2023/01/04 13:14:30;;;;;;;3.93;3.53;;;9.30;99.90;;;;;;5050377;28;20458;-55
2023/01/04 13:17:19;;;;;;;4.80;4.10;;;8.90;99.90;;;;;;5050738;28;20430;-55
2023/01/04 13:19:46;;;;;;;7.53;4.37;;;9.10;99.90;;;;;;5049027;28;20638;-54
2023/01/04 13:22:19;;;;;;;5.20;4.23;;;8.90;99.90;;;;;;5050712;28;20444;-55
2023/01/04 13:24:48;;;;;;;5.00;3.70;;;9.00;99.90;;;;;;5050866;28;20471;-55
2023/01/04 13:27:17;;;;;;;5.50;4.50;;;9.10;99.90;;;;;;5050115;28;20500;-55
2023/01/04 13:29:44;;;;;;;4.27;3.70;;;9.40;99.90;;;;;;5050454;28;20453;-55
2023/01/04 13:32:14;;;;;;;4.83;4.03;;;8.80;99.90;;;;;;5050290;28;20454;-55
2023/01/04 13:34:49;;;;;;;5.03;4.43;;;9.20;99.90;;;;;;5050421;28;20409;-54
2023/01/04 13:37:27;;;;;;;5.07;4.40;;;8.90;99.90;;;;;;5050332;28;20434;-55
2023/01/04 13:40:17;;;;;;;5.40;4.63;;;9.20;99.90;;;;;;5049745;28;20419;-57
2023/01/04 13:42:46;;;;;;;5.80;4.23;;;9.30;99.90;;;;;;5047835;28;20549;-55
2023/01/04 13:45:30;;;;;;;6.93;4.03;;;9.20;99.90;;;;;;5049340;28;20420;-55
2023/01/04 13:47:59;;;;;;;5.53;4.30;;;9.40;99.90;;;;;;5050543;28;20907;-55
2023/01/04 13:50:29;;;;;;;5.77;4.27;;;9.20;99.90;;;;;;5052256;28;20492;-55
2023/01/04 13:52:56;;;;;;;5.50;4.23;;;9.40;99.90;;;;;;5054086;28;20430;-55
2023/01/04 13:55:28;;;;;;;6.73;3.93;;;8.80;99.90;;;;;;5053946;28;20417;-55
2023/01/04 13:57:55;;;;;;;7.77;3.73;;;9.50;99.90;;;;;;5053605;28;20405;-55
2023/01/04 14:00:22;;;;;;;7.43;4.00;;;9.60;99.90;;;;;;5052958;28;20467;-55